Time;durP1;ratioP1;P1;durP2;ratioP2;P2;SDS_P1;SDS_P2;PMS_P1;PMS_P2;Temp;Humidity;BMP_temperature;BMP_pressure;BME280_temperature;BME280_humidity;BME280_pressure;Samples;Min_cycle;Max_cycle;Signal;HPM_P1;HPM_P2
2021/04/28 00:01:54;;;;;;;8.23;4.65;;;8.70;46.00;;;;;;5091057;28;20660;-70
2021/04/28 00:04:19;;;;;;;6.60;4.55;;;8.70;46.00;;;;;;5080036;28;20452;-70
2021/04/28 00:06:48;;;;;;;6.00;4.30;;;8.60;46.20;;;;;;5071111;28;20380;-69
2021/04/28 00:09:14;;;;;;;7.70;4.35;;;8.70;46.80;;;;;;5074215;28;20067;-69
2021/04/28 00:11:40;;;;;;;8.75;4.43;;;8.70;46.30;;;;;;5076546;28;20058;-69
2021/04/28 00:14:07;;;;;;;8.43;5.13;;;8.60;46.50;;;;;;5079457;28;20028;-70
2021/04/28 00:16:33;;;;;;;8.95;4.65;;;8.60;46.50;;;;;;5053423;28;20396;-70
2021/04/28 00:18:59;;;;;;;7.47;4.28;;;8.60;46.70;;;;;;5065719;28;20028;-69
2021/04/28 00:21:25;;;;;;;8.32;4.75;;;8.50;46.50;;;;;;5092091;28;20019;-70
2021/04/28 00:23:50;;;;;;;10.25;5.20;;;8.50;46.50;;;;;;5083098;28;20021;-69
2021/04/28 00:26:16;;;;;;;6.50;4.53;;;8.50;46.60;;;;;;5081101;28;20081;-69
2021/04/28 00:28:43;;;;;;;9.27;4.70;;;8.40;46.70;;;;;;5097133;28;20031;-70
2021/04/28 00:31:09;;;;;;;8.20;4.72;;;8.40;46.90;;;;;;5099617;28;20066;-69
2021/04/28 00:33:34;;;;;;;7.70;4.50;;;8.40;47.00;;;;;;5106108;28;20027;-69
2021/04/28 00:36:00;;;;;;;6.45;4.70;;;8.30;47.00;;;;;;5115292;28;20016;-69
2021/04/28 00:38:26;;;;;;;6.55;4.18;;;8.30;47.00;;;;;;5107951;28;20467;-70
2021/04/28 00:40:52;;;;;;;6.70;5.00;;;8.30;47.00;;;;;;5117904;28;20059;-70
2021/04/28 00:43:18;;;;;;;9.40;4.28;;;8.30;46.90;;;;;;5104419;28;20028;-69
2021/04/28 00:45:44;;;;;;;7.32;4.82;;;8.30;47.00;;;;;;5119421;28;20050;-69
2021/04/28 00:48:11;;;;;;;8.60;5.15;;;8.20;47.00;;;;;;5087620;28;20101;-69
2021/04/28 00:50:40;;;;;;;9.05;4.93;;;8.20;47.30;;;;;;5074302;28;20029;-69
2021/04/28 00:53:07;;;;;;;7.93;4.65;;;8.20;47.20;;;;;;5071465;28;20039;-69
2021/04/28 00:55:33;;;;;;;7.63;4.65;;;8.10;47.20;;;;;;5114969;28;20031;-69
2021/04/28 00:58:00;;;;;;;6.68;4.80;;;8.10;47.20;;;;;;5080156;28;20465;-70
2021/04/28 01:00:26;;;;;;;8.23;4.60;;;8.10;47.20;;;;;;5114561;28;20040;-70
2021/04/28 01:02:53;;;;;;;9.98;5.22;;;8.10;47.60;;;;;;5084102;28;20036;-70
2021/04/28 01:05:19;;;;;;;8.98;5.07;;;8.10;47.80;;;;;;5094155;28;20017;-70
2021/04/28 01:07:46;;;;;;;7.15;4.50;;;8.00;47.70;;;;;;5093397;28;20032;-70
2021/04/28 01:10:21;;;;;;;7.20;4.47;;;7.90;47.60;;;;;;5092871;28;20024;-70
2021/04/28 01:12:48;;;;;;;9.40;4.88;;;7.90;47.70;;;;;;5093098;28;20058;-69
2021/04/28 01:15:17;;;;;;;7.60;4.90;;;8.00;48.00;;;;;;5093697;28;20375;-69
2021/04/28 01:17:43;;;;;;;10.57;4.55;;;7.90;47.80;;;;;;5092881;28;20024;-69
2021/04/28 01:20:11;;;;;;;8.52;4.90;;;7.90;47.90;;;;;;5093301;28;20024;-69
2021/04/28 01:22:41;;;;;;;9.23;5.35;;;7.80;48.00;;;;;;5092716;28;20082;-70
2021/04/28 01:25:10;;;;;;;9.57;5.90;;;7.80;47.90;;;;;;5083877;28;20020;-70
2021/04/28 01:27:38;;;;;;;9.63;5.00;;;7.80;48.00;;;;;;5058227;28;20931;-70
2021/04/28 01:30:06;;;;;;;9.05;5.20;;;7.80;48.10;;;;;;5106585;28;20028;-70
2021/04/28 01:32:34;;;;;;;8.25;4.72;;;7.70;48.10;;;;;;5073864;28;20054;-70
2021/04/28 01:35:00;;;;;;;8.93;5.60;;;7.70;48.20;;;;;;5087422;28;20029;-69
2021/04/28 01:37:27;;;;;;;7.57;4.80;;;7.70;48.20;;;;;;5090090;28;20035;-70
2021/04/28 01:39:53;;;;;;;7.03;5.15;;;7.70;48.30;;;;;;5062967;28;20105;-70
2021/04/28 01:42:19;;;;;;;9.80;5.10;;;7.70;48.70;;;;;;5093836;28;20477;-70
2021/04/28 01:44:47;;;;;;;11.93;5.15;;;7.60;48.40;;;;;;5090842;28;20028;-70
2021/04/28 01:47:14;;;;;;;9.00;5.05;;;7.60;48.50;;;;;;5092494;28;20047;-69
2021/04/28 01:49:41;;;;;;;9.05;4.80;;;7.60;48.70;;;;;;5092423;28;20077;-71
2021/04/28 01:52:07;;;;;;;8.45;4.97;;;7.60;48.70;;;;;;5106967;28;20031;-70
2021/04/28 01:54:33;;;;;;;10.48;5.90;;;7.60;48.90;;;;;;5104810;28;20375;-70
2021/04/28 01:56:59;;;;;;;11.60;5.25;;;7.60;48.80;;;;;;5105445;28;20020;-70
2021/04/28 01:59:25;;;;;;;9.60;5.47;;;7.50;48.70;;;;;;5104088;28;20052;-70
2021/04/28 02:01:52;;;;;;;10.15;5.00;;;7.50;48.80;;;;;;5104285;28;20020;-71
2021/04/28 02:04:18;;;;;;;8.70;5.25;;;7.50;48.70;;;;;;5101033;28;20060;-70
2021/04/28 02:06:45;;;;;;;9.55;5.40;;;7.50;48.80;;;;;;5085474;28;20058;-71
2021/04/28 02:09:11;;;;;;;11.15;5.28;;;7.50;48.80;;;;;;5104708;28;20496;-71
2021/04/28 02:11:37;;;;;;;12.38;5.22;;;7.40;48.90;;;;;;5090325;28;20069;-71
2021/04/28 02:14:04;;;;;;;11.57;6.13;;;7.50;49.00;;;;;;5087894;28;20033;-71
2021/04/28 02:16:32;;;;;;;9.63;6.03;;;7.50;49.10;;;;;;5074428;28;20027;-71
2021/04/28 02:19:01;;;;;;;10.07;5.70;;;7.50;49.10;;;;;;5095063;28;20081;-70
2021/04/28 02:21:27;;;;;;;8.95;5.57;;;7.40;49.00;;;;;;5081064;28;20118;-71
2021/04/28 02:23:53;;;;;;;8.98;5.80;;;7.40;49.20;;;;;;5088097;28;20472;-71
2021/04/28 02:26:19;;;;;;;11.35;5.63;;;7.50;49.10;;;;;;5100208;28;20034;-71
2021/04/28 02:28:44;;;;;;;10.38;6.20;;;7.40;49.00;;;;;;5098844;28;20032;-70
2021/04/28 02:31:09;;;;;;;9.50;6.20;;;7.40;49.10;;;;;;5101828;28;20547;-71
2021/04/28 02:33:36;;;;;;;8.15;5.47;;;7.40;49.10;;;;;;5091784;28;20028;-70
2021/04/28 02:36:02;;;;;;;10.38;5.55;;;7.40;49.20;;;;;;5091371;28;20035;-70
2021/04/28 02:38:40;;;;;;;10.45;5.60;;;7.40;49.20;;;;;;5091275;28;20028;-70
2021/04/28 02:41:07;;;;;;;11.48;6.25;;;7.40;49.30;;;;;;5085727;28;20508;-70
2021/04/28 02:43:37;;;;;;;10.20;5.88;;;7.30;49.30;;;;;;5086292;28;20107;-72
2021/04/28 02:46:04;;;;;;;10.40;5.97;;;7.40;49.50;;;;;;5091263;28;20514;-71
2021/04/28 02:48:30;;;;;;;8.65;5.80;;;7.30;49.40;;;;;;5092047;28;20444;-72
2021/04/28 02:50:56;;;;;;;11.05;6.30;;;7.40;49.60;;;;;;5104490;28;20023;-72
2021/04/28 02:53:25;;;;;;;8.20;5.30;;;7.40;49.90;;;;;;5091421;28;20032;-72
2021/04/28 02:55:56;;;;;;;10.68;6.93;;;7.30;49.90;;;;;;5094959;28;20016;-71
2021/04/28 02:58:23;;;;;;;10.90;5.75;;;7.30;49.90;;;;;;5096692;28;20036;-69
2021/04/28 03:00:50;;;;;;;9.93;5.80;;;7.30;49.90;;;;;;5089528;28;20083;-70
2021/04/28 03:03:16;;;;;;;11.10;6.07;;;7.20;50.20;;;;;;5077602;28;20028;-71
2021/04/28 03:05:42;;;;;;;11.60;5.97;;;7.20;50.20;;;;;;5075615;28;20028;-71
2021/04/28 03:08:08;;;;;;;11.55;5.78;;;7.20;50.30;;;;;;5090664;28;20078;-71
2021/04/28 03:10:34;;;;;;;10.75;5.70;;;7.20;50.50;;;;;;5089709;28;20354;-71
2021/04/28 03:13:00;;;;;;;10.70;5.75;;;7.10;50.70;;;;;;5078259;28;20033;-71
2021/04/28 03:15:26;;;;;;;10.38;6.63;;;7.10;50.50;;;;;;5076061;28;20028;-71
2021/04/28 03:17:52;;;;;;;12.82;5.55;;;7.10;50.70;;;;;;5053608;28;20051;-71
2021/04/28 03:20:19;;;;;;;12.10;5.65;;;7.00;50.60;;;;;;5072457;28;20021;-71
2021/04/28 03:22:45;;;;;;;10.60;6.53;;;7.00;50.90;;;;;;5071480;28;20024;-71
2021/04/28 03:25:12;;;;;;;10.10;5.35;;;7.00;50.90;;;;;;5074743;28;20085;-71
2021/04/28 03:27:38;;;;;;;10.23;6.15;;;7.00;51.00;;;;;;5091760;28;20039;-70
2021/04/28 03:30:07;;;;;;;13.45;6.63;;;7.00;51.10;;;;;;5105587;28;20031;-70
2021/04/28 03:32:33;;;;;;;8.98;5.75;;;6.90;51.40;;;;;;5090497;28;20028;-71
2021/04/28 03:34:58;;;;;;;11.95;6.80;;;6.80;51.40;;;;;;5086914;28;20573;-71
2021/04/28 03:37:24;;;;;;;10.65;6.60;;;6.80;51.70;;;;;;5105942;28;20024;-71
2021/04/28 03:39:50;;;;;;;10.00;6.03;;;6.80;51.80;;;;;;5092645;28;20055;-71
2021/04/28 03:42:16;;;;;;;10.68;6.30;;;6.80;51.80;;;;;;5070966;28;20387;-71
2021/04/28 03:44:42;;;;;;;11.02;6.07;;;6.70;51.90;;;;;;5073982;28;20445;-71
2021/04/28 03:47:07;;;;;;;12.63;6.43;;;6.70;52.10;;;;;;5098981;28;20040;-71
2021/04/28 03:49:33;;;;;;;11.75;6.38;;;6.70;52.20;;;;;;5088565;28;20431;-71
2021/04/28 03:51:58;;;;;;;9.65;6.10;;;6.70;52.20;;;;;;5104279;28;20459;-71
2021/04/28 03:54:25;;;;;;;12.00;6.45;;;6.70;52.60;;;;;;5109749;28;20031;-71
2021/04/28 03:56:50;;;;;;;13.98;6.47;;;6.60;52.50;;;;;;5102923;28;20035;-71
2021/04/28 03:59:16;;;;;;;9.85;6.47;;;6.60;53.00;;;;;;5104496;28;20040;-71
2021/04/28 04:01:42;;;;;;;9.90;5.82;;;6.60;53.10;;;;;;5077892;28;20036;-71
2021/04/28 04:04:08;;;;;;;10.15;7.07;;;6.60;53.00;;;;;;5109509;28;20061;-71
2021/04/28 04:06:33;;;;;;;11.23;6.72;;;6.60;53.20;;;;;;5098602;28;20027;-71
2021/04/28 04:08:59;;;;;;;9.82;6.28;;;6.60;53.40;;;;;;5087005;28;20048;-71
2021/04/28 04:11:25;;;;;;;14.77;6.78;;;6.60;53.30;;;;;;5080948;28;20024;-71
2021/04/28 04:13:51;;;;;;;10.18;6.32;;;6.60;53.30;;;;;;5090063;28;20028;-71
2021/04/28 04:16:16;;;;;;;10.23;5.95;;;6.60;53.30;;;;;;5098358;28;20057;-70
2021/04/28 04:18:42;;;;;;;13.35;6.57;;;6.60;53.60;;;;;;5101229;28;20028;-71
2021/04/28 04:21:07;;;;;;;10.43;7.13;;;6.60;53.60;;;;;;5087077;28;20495;-71
2021/04/28 04:23:33;;;;;;;13.02;6.55;;;6.60;53.60;;;;;;5094730;28;20115;-71
2021/04/28 04:25:58;;;;;;;11.48;6.38;;;6.60;54.10;;;;;;5087901;28;20036;-71
2021/04/28 04:28:24;;;;;;;14.65;6.55;;;6.60;54.10;;;;;;5082908;28;20036;-71
2021/04/28 04:30:51;;;;;;;15.90;8.95;;;6.50;54.00;;;;;;5088895;28;20106;-71
2021/04/28 04:33:17;;;;;;;16.45;8.43;;;6.60;54.40;;;;;;5097491;28;20032;-71
2021/04/28 04:35:46;;;;;;;15.57;8.82;;;6.60;54.30;;;;;;5093458;28;20028;-71
2021/04/28 04:38:13;;;;;;;14.07;9.35;;;6.60;54.40;;;;;;5098991;28;20062;-70
2021/04/28 04:40:38;;;;;;;17.55;8.63;;;6.60;55.00;;;;;;5074011;28;20492;-71
2021/04/28 04:43:04;;;;;;;15.88;9.27;;;6.60;54.90;;;;;;5094624;28;20166;-71
2021/04/28 04:45:33;;;;;;;19.67;9.77;;;6.50;54.70;;;;;;5093026;28;20059;-70
2021/04/28 04:48:00;;;;;;;12.88;8.20;;;6.50;54.60;;;;;;5094797;28;20033;-71
2021/04/28 04:50:25;;;;;;;12.43;8.07;;;6.60;54.90;;;;;;5092867;28;20039;-71
2021/04/28 04:52:51;;;;;;;10.23;7.32;;;6.60;55.30;;;;;;5096098;28;20028;-70
2021/04/28 04:55:16;;;;;;;12.00;6.93;;;6.60;55.00;;;;;;5093988;28;20047;-71
2021/04/28 04:57:42;;;;;;;15.35;7.47;;;6.60;55.10;;;;;;5094641;28;20024;-71
2021/04/28 05:00:08;;;;;;;11.93;6.72;;;6.70;55.50;;;;;;5093419;28;20147;-72
2021/04/28 05:02:33;;;;;;;12.57;6.97;;;6.70;55.20;;;;;;5103205;28;20032;-71
2021/04/28 05:04:59;;;;;;;12.30;6.68;;;6.70;55.30;;;;;;5075310;28;20106;-71
2021/04/28 05:07:24;;;;;;;12.68;7.60;;;6.70;55.10;;;;;;5091734;28;20481;-72
2021/04/28 05:09:51;;;;;;;12.18;7.07;;;6.80;55.40;;;;;;5093028;28;20122;-71
2021/04/28 05:12:16;;;;;;;12.20;7.03;;;6.70;55.30;;;;;;5095767;28;20031;-70
2021/04/28 05:14:42;;;;;;;14.45;7.78;;;6.80;55.40;;;;;;5093981;28;20531;-70
2021/04/28 05:17:07;;;;;;;13.57;7.30;;;6.80;55.30;;;;;;5097019;28;20372;-70
2021/04/28 05:19:33;;;;;;;12.95;7.72;;;6.90;55.50;;;;;;5093838;28;20104;-69
2021/04/28 05:21:58;;;;;;;13.27;7.55;;;6.90;55.70;;;;;;5096308;28;20016;-70
2021/04/28 05:24:24;;;;;;;15.85;7.80;;;7.00;55.60;;;;;;5082083;28;20534;-70
2021/04/28 05:26:49;;;;;;;12.15;7.82;;;7.00;55.60;;;;;;5090996;28;20105;-69
2021/04/28 05:29:14;;;;;;;12.48;7.55;;;7.00;55.40;;;;;;5074978;28;20119;-69
2021/04/28 05:31:40;;;;;;;14.20;7.53;;;7.00;55.50;;;;;;5092241;28;20024;-67
2021/04/28 05:34:05;;;;;;;18.15;7.82;;;7.10;55.50;;;;;;5093667;28;20637;-67
2021/04/28 05:36:31;;;;;;;14.43;8.20;;;7.10;55.50;;;;;;5092175;28;20052;-68
2021/04/28 05:38:58;;;;;;;15.13;8.70;;;7.10;55.40;;;;;;5075305;28;20020;-69
2021/04/28 05:41:24;;;;;;;14.57;7.60;;;7.10;55.30;;;;;;5076441;28;20024;-67
2021/04/28 05:43:49;;;;;;;14.93;7.82;;;7.10;55.20;;;;;;5093709;28;20058;-67
2021/04/28 05:46:15;;;;;;;17.83;8.77;;;7.10;55.20;;;;;;5094998;28;20050;-68
2021/04/28 05:48:41;;;;;;;13.43;8.32;;;7.10;55.40;;;;;;5108291;28;20092;-68
2021/04/28 05:51:06;;;;;;;20.95;8.60;;;7.10;55.30;;;;;;5084900;28;20093;-68
2021/04/28 05:53:32;;;;;;;17.48;7.88;;;7.10;55.50;;;;;;5092756;28;20525;-69
2021/04/28 05:56:03;;;;;;;13.73;8.07;;;7.10;55.50;;;;;;5097905;28;20480;-68
2021/04/28 05:58:28;;;;;;;17.27;9.52;;;7.10;55.50;;;;;;5095388;28;20453;-68
2021/04/28 06:00:53;;;;;;;15.07;8.30;;;7.20;55.50;;;;;;5096309;28;20126;-68
2021/04/28 06:03:19;;;;;;;17.42;8.60;;;7.30;55.40;;;;;;5111186;28;20015;-68
2021/04/28 06:05:45;;;;;;;14.85;8.80;;;7.30;55.30;;;;;;5086743;28;20016;-67
2021/04/28 06:08:12;;;;;;;13.98;8.27;;;7.40;55.40;;;;;;5092849;28;20095;-67
2021/04/28 06:10:38;;;;;;;14.25;8.27;;;7.50;55.30;;;;;;5100093;28;20036;-68
2021/04/28 06:13:03;;;;;;;12.90;8.25;;;7.60;55.20;;;;;;5091137;28;20085;-68
2021/04/28 06:15:29;;;;;;;14.32;8.32;;;7.70;55.10;;;;;;5084064;28;20020;-68
2021/04/28 06:17:54;;;;;;;15.05;8.85;;;7.80;54.90;;;;;;5092899;28;20361;-69
2021/04/28 06:20:20;;;;;;;15.05;8.20;;;7.80;54.60;;;;;;5091201;28;20388;-69
2021/04/28 06:22:46;;;;;;;17.70;8.38;;;7.90;54.50;;;;;;5096581;28;20020;-69
2021/04/28 06:25:13;;;;;;;16.17;8.52;;;8.00;54.40;;;;;;5082018;28;20034;-70
2021/04/28 06:27:38;;;;;;;16.15;8.23;;;8.00;54.20;;;;;;5087622;28;20040;-71
2021/04/28 06:30:06;;;;;;;15.02;8.85;;;8.10;54.00;;;;;;5088842;28;20504;-70
2021/04/28 06:32:32;;;;;;;17.98;7.90;;;8.20;54.00;;;;;;5091111;28;20040;-71
2021/04/28 06:34:57;;;;;;;15.18;8.55;;;8.20;54.00;;;;;;5090744;28;20124;-70
2021/04/28 06:37:22;;;;;;;14.32;8.40;;;8.40;53.80;;;;;;5107063;28;20057;-72
2021/04/28 06:39:48;;;;;;;15.25;8.20;;;8.40;53.40;;;;;;5092483;28;20110;-70
2021/04/28 06:42:14;;;;;;;18.63;8.88;;;8.40;53.30;;;;;;5088848;28;20020;-71
2021/04/28 06:44:40;;;;;;;17.80;8.45;;;8.50;53.10;;;;;;5073059;28;20031;-70
2021/04/28 06:47:05;;;;;;;15.90;9.18;;;8.60;53.50;;;;;;5105527;28;20395;-71
2021/04/28 06:49:31;;;;;;;14.93;8.60;;;8.60;52.60;;;;;;5108330;28;20069;-70
2021/04/28 06:51:57;;;;;;;16.10;8.85;;;8.70;52.60;;;;;;5104325;28;20035;-70
2021/04/28 06:54:23;;;;;;;15.20;8.07;;;8.80;52.70;;;;;;5112507;28;20089;-71
2021/04/28 06:56:49;;;;;;;14.68;8.23;;;8.90;52.10;;;;;;5071910;28;20111;-70
2021/04/28 06:59:16;;;;;;;13.85;8.65;;;8.90;51.80;;;;;;5092183;28;20131;-70
2021/04/28 07:01:44;;;;;;;14.63;7.28;;;8.90;51.80;;;;;;5095451;28;20451;-71
2021/04/28 07:04:10;;;;;;;13.10;7.55;;;9.00;51.80;;;;;;5090239;28;20074;-71
2021/04/28 07:06:36;;;;;;;15.85;8.18;;;9.10;51.80;;;;;;5108391;28;20468;-70
2021/04/28 07:09:04;;;;;;;18.17;8.32;;;9.20;51.70;;;;;;5106612;28;20043;-70
2021/04/28 07:11:30;;;;;;;15.77;8.77;;;9.30;51.60;;;;;;5091320;28;20024;-70
2021/04/28 07:13:55;;;;;;;15.10;8.50;;;9.40;51.40;;;;;;5091466;28;20512;-70
2021/04/28 07:16:21;;;;;;;18.95;8.82;;;9.40;51.20;;;;;;5090925;28;20050;-70
2021/04/28 07:18:46;;;;;;;12.80;7.93;;;9.50;51.10;;;;;;5091474;28;20363;-70
2021/04/28 07:21:12;;;;;;;14.25;8.30;;;9.50;51.20;;;;;;5091213;28;20023;-70
2021/04/28 07:23:37;;;;;;;16.92;8.27;;;9.60;51.20;;;;;;5095115;28;20399;-70
2021/04/28 07:26:03;;;;;;;13.48;7.82;;;9.80;51.20;;;;;;5102288;28;20028;-72
2021/04/28 07:28:29;;;;;;;15.10;8.45;;;9.90;50.80;;;;;;5090829;28;20047;-69
2021/04/28 07:30:54;;;;;;;15.48;8.05;;;10.00;50.60;;;;;;5073107;28;20035;-70
2021/04/28 07:33:19;;;;;;;18.65;8.65;;;10.10;50.30;;;;;;5090755;28;20039;-73
2021/04/28 07:35:45;;;;;;;11.70;7.72;;;10.20;49.70;;;;;;5090519;28;20028;-72
2021/04/28 07:38:10;;;;;;;12.82;8.13;;;10.20;49.90;;;;;;5091718;28;20035;-72
2021/04/28 07:40:36;;;;;;;15.25;8.32;;;10.30;49.80;;;;;;5090722;28;20032;-73
2021/04/28 07:43:02;;;;;;;15.65;8.25;;;10.40;49.60;;;;;;5090388;28;20542;-71
2021/04/28 07:45:28;;;;;;;14.75;8.32;;;10.50;48.80;;;;;;5063685;28;20032;-71
2021/04/28 07:47:53;;;;;;;16.80;9.02;;;10.50;49.20;;;;;;5081369;28;20032;-71
2021/04/28 07:50:19;;;;;;;17.08;9.43;;;10.50;48.70;;;;;;5090552;28;20035;-72
2021/04/28 07:52:48;;;;;;;16.38;8.38;;;10.60;48.80;;;;;;5091842;28;20031;-76
2021/04/28 07:55:14;;;;;;;14.65;9.70;;;10.70;48.80;;;;;;5094255;28;20016;-77
2021/04/28 07:57:40;;;;;;;14.77;7.72;;;10.70;48.20;;;;;;5094822;28;20028;-73
2021/04/28 08:00:07;;;;;;;18.02;10.00;;;10.80;48.50;;;;;;5095431;28;20515;-75
2021/04/28 08:02:33;;;;;;;17.55;9.25;;;10.80;48.40;;;;;;5093583;28;20032;-74
2021/04/28 08:04:58;;;;;;;20.55;8.32;;;10.80;48.30;;;;;;5076802;28;20038;-74
2021/04/28 08:07:24;;;;;;;17.98;8.82;;;10.90;48.60;;;;;;5076454;28;20032;-73
2021/04/28 08:09:49;;;;;;;14.07;8.32;;;11.00;48.40;;;;;;5077070;28;20411;-75
2021/04/28 08:12:15;;;;;;;19.17;8.95;;;11.20;48.60;;;;;;5095073;28;20030;-72
2021/04/28 08:14:40;;;;;;;16.60;8.45;;;11.30;48.10;;;;;;5095461;28;20394;-72
2021/04/28 08:17:10;;;;;;;15.75;8.95;;;11.30;47.40;;;;;;5076371;28;20480;-73
2021/04/28 08:19:35;;;;;;;15.32;8.77;;;11.20;47.40;;;;;;5094918;28;20028;-72
2021/04/28 08:22:01;;;;;;;15.98;8.85;;;11.20;47.30;;;;;;5076218;28;20107;-74
2021/04/28 08:24:26;;;;;;;16.55;9.52;;;11.20;47.20;;;;;;5094366;28;20111;-74
2021/04/28 08:26:52;;;;;;;17.52;9.30;;;11.20;47.50;;;;;;5093910;28;20123;-73
2021/04/28 08:29:17;;;;;;;18.35;8.80;;;11.30;47.70;;;;;;5095206;28;20081;-73
2021/04/28 08:31:43;;;;;;;14.95;8.55;;;11.40;47.50;;;;;;5094996;28;20024;-72
2021/04/28 08:34:08;;;;;;;14.27;8.48;;;11.40;47.40;;;;;;5075754;28;20032;-73
2021/04/28 08:36:34;;;;;;;16.63;9.35;;;11.40;47.40;;;;;;5094844;28;20518;-68
2021/04/28 08:39:06;;;;;;;13.70;8.57;;;11.50;47.10;;;;;;5074947;28;20036;-70
2021/04/28 08:41:31;;;;;;;15.25;8.75;;;11.60;47.40;;;;;;5094457;28;20089;-71
2021/04/28 08:43:57;;;;;;;17.13;9.32;;;11.70;47.20;;;;;;5094143;28;20396;-71
2021/04/28 08:46:23;;;;;;;15.82;8.82;;;11.70;47.30;;;;;;5094784;28;20521;-70
2021/04/28 08:48:48;;;;;;;15.27;9.20;;;11.80;47.40;;;;;;5093641;28;20043;-71
2021/04/28 08:51:18;;;;;;;12.50;8.10;;;11.90;47.10;;;;;;5093959;28;20428;-71
2021/04/28 08:53:44;;;;;;;16.05;9.40;;;12.00;46.90;;;;;;5093822;28;20032;-70
2021/04/28 08:56:10;;;;;;;13.80;9.27;;;12.20;47.10;;;;;;5094506;28;20031;-72
2021/04/28 08:58:37;;;;;;;16.45;8.80;;;12.30;46.60;;;;;;5093768;28;20020;-71
2021/04/28 09:01:03;;;;;;;14.98;8.35;;;12.30;46.70;;;;;;5094114;28;20167;-71
2021/04/28 09:03:43;;;;;;;16.40;8.65;;;12.50;46.20;;;;;;5087633;28;20496;-69
2021/04/28 09:06:25;;;;;;;16.77;8.57;;;12.50;45.40;;;;;;5083345;28;20058;-69
2021/04/28 09:08:51;;;;;;;15.10;8.13;;;12.50;45.40;;;;;;5090736;28;20043;-69
2021/04/28 09:11:51;;;;;;;14.88;8.70;;;12.60;45.50;;;;;;5094031;28;20028;-70
2021/04/28 09:14:28;;;;;;;14.07;8.45;;;12.70;45.20;;;;;;5069458;28;20040;-69
2021/04/28 09:16:54;;;;;;;13.15;7.95;;;12.80;45.50;;;;;;5075958;28;20035;-69
2021/04/28 09:19:31;;;;;;;13.15;8.27;;;12.90;45.50;;;;;;5085495;28;20391;-69
2021/04/28 09:22:20;;;;;;;14.95;8.88;;;13.00;45.50;;;;;;5060671;28;20484;-70
2021/04/28 09:24:50;;;;;;;18.95;8.85;;;13.10;45.20;;;;;;5093896;28;20039;-69
2021/04/28 09:27:34;;;;;;;15.88;8.88;;;13.10;45.30;;;;;;5075880;28;20024;-69
2021/04/28 09:30:00;;;;;;;12.48;9.20;;;13.30;45.40;;;;;;5093799;28;20024;-69
2021/04/28 09:32:39;;;;;;;14.57;9.63;;;13.30;45.20;;;;;;5092576;28;20050;-69
2021/04/28 09:35:16;;;;;;;15.75;8.80;;;13.30;44.50;;;;;;5093118;28;20089;-69
2021/04/28 09:38:01;;;;;;;14.93;8.73;;;13.40;44.90;;;;;;5088374;28;20103;-69
2021/04/28 09:40:42;;;;;;;18.63;9.30;;;13.50;45.30;;;;;;5093327;28;20021;-68
2021/04/28 09:43:09;;;;;;;13.77;8.32;;;13.60;44.80;;;;;;5091699;28;20029;-69
2021/04/28 09:45:45;;;;;;;13.75;8.32;;;13.70;45.00;;;;;;5092737;28;20092;-68
2021/04/28 09:48:16;;;;;;;18.38;8.60;;;13.90;44.80;;;;;;5089274;28;20048;-69
2021/04/28 09:50:42;;;;;;;19.65;8.80;;;14.10;44.70;;;;;;5079867;28;20107;-68
2021/04/28 09:53:07;;;;;;;13.15;8.68;;;14.20;44.70;;;;;;5093242;28;20120;-69
2021/04/28 09:55:46;;;;;;;15.73;9.35;;;14.40;43.80;;;;;;5083109;28;20126;-69
2021/04/28 09:58:13;;;;;;;17.33;10.45;;;14.50;43.80;;;;;;5092881;28;20228;-69
2021/04/28 10:00:39;;;;;;;19.00;9.32;;;14.60;43.10;;;;;;5091740;28;20083;-69
2021/04/28 10:03:07;;;;;;;13.70;9.02;;;14.70;43.10;;;;;;5090029;28;20062;-69
2021/04/28 10:05:35;;;;;;;17.15;10.32;;;14.70;43.20;;;;;;5083043;28;20119;-69
2021/04/28 10:08:09;;;;;;;17.73;9.52;;;14.80;43.00;;;;;;5092691;28;20062;-69
2021/04/28 10:10:36;;;;;;;14.48;9.32;;;15.00;42.90;;;;;;5083798;28;20028;-69
2021/04/28 10:13:02;;;;;;;17.60;8.50;;;15.10;42.50;;;;;;5092956;28;20053;-71
2021/04/28 10:15:28;;;;;;;14.45;8.23;;;15.20;42.00;;;;;;5089956;28;20024;-69
2021/04/28 10:17:55;;;;;;;15.00;8.60;;;15.30;41.10;;;;;;5075747;28;20026;-69
2021/04/28 10:20:21;;;;;;;13.13;9.05;;;15.50;40.40;;;;;;5084825;28;20378;-69
2021/04/28 10:22:49;;;;;;;15.65;8.82;;;15.60;40.30;;;;;;5096758;28;20032;-70
2021/04/28 10:25:17;;;;;;;13.38;8.13;;;15.60;40.30;;;;;;5090803;28;20583;-69
2021/04/28 10:27:45;;;;;;;16.55;8.35;;;15.80;41.10;;;;;;5092698;28;20090;-69
2021/04/28 10:30:16;;;;;;;14.30;7.75;;;15.80;41.20;;;;;;5092015;28;20028;-69
2021/04/28 10:32:43;;;;;;;13.55;8.07;;;16.00;41.40;;;;;;5112574;28;20039;-68
2021/04/28 10:35:13;;;;;;;12.63;8.60;;;16.10;40.20;;;;;;5093942;28;20107;-69
2021/04/28 10:37:41;;;;;;;14.10;8.95;;;16.20;39.30;;;;;;5111056;28;20066;-69
2021/04/28 10:40:18;;;;;;;15.35;9.45;;;16.20;39.40;;;;;;5104347;28;20032;-69
2021/04/28 10:42:44;;;;;;;17.38;10.00;;;16.30;39.00;;;;;;5092430;28;20032;-69
2021/04/28 10:45:11;;;;;;;15.35;8.23;;;16.30;39.50;;;;;;5090331;28;20072;-68
2021/04/28 10:47:49;;;;;;;17.02;8.35;;;16.40;39.60;;;;;;5111036;28;20504;-69
2021/04/28 10:50:23;;;;;;;17.73;10.00;;;16.50;39.10;;;;;;5103620;28;20103;-69
2021/04/28 10:52:53;;;;;;;20.13;9.27;;;16.50;38.80;;;;;;5090391;28;20099;-68
2021/04/28 10:55:56;;;;;;;13.88;9.25;;;16.60;38.80;;;;;;5090650;28;20410;-68
2021/04/28 10:58:31;;;;;;;15.23;8.65;;;16.60;38.60;;;;;;5073464;28;20029;-68
2021/04/28 11:01:03;;;;;;;12.63;7.88;;;16.70;39.30;;;;;;5087206;28;20542;-69
2021/04/28 11:03:41;;;;;;;17.70;9.07;;;16.80;39.60;;;;;;5099120;28;20032;-69
2021/04/28 11:06:25;;;;;;;14.02;8.40;;;16.80;39.00;;;;;;5096728;28;20458;-68
2021/04/28 11:08:59;;;;;;;19.80;9.30;;;16.90;38.90;;;;;;5112703;28;20045;-69
2021/04/28 11:14:09;;;;;;;16.35;8.90;;;17.10;38.30;;;;;;5091961;28;20340;-68
2021/04/28 11:16:46;;;;;;;16.58;9.05;;;17.10;38.00;;;;;;5089696;28;20476;-68
2021/04/28 11:19:17;;;;;;;24.45;9.18;;;17.10;38.10;;;;;;5091445;28;20072;-69
2021/04/28 11:21:44;;;;;;;17.38;8.73;;;17.20;38.50;;;;;;5083747;28;20039;-69
2021/04/28 11:24:11;;;;;;;14.90;8.32;;;17.20;38.50;;;;;;5091277;28;20105;-68
2021/04/28 11:26:46;;;;;;;14.48;8.60;;;17.40;38.30;;;;;;5093581;28;20031;-68
2021/04/28 11:29:12;;;;;;;16.25;9.18;;;17.40;38.10;;;;;;5080825;28;20037;-69
2021/04/28 11:31:42;;;;;;;15.38;8.25;;;17.50;38.30;;;;;;5093488;28;20511;-69
2021/04/28 11:34:18;;;;;;;14.63;7.97;;;17.50;38.30;;;;;;5086040;28;20028;-69
2021/04/28 11:36:53;;;;;;;13.80;8.10;;;17.60;38.40;;;;;;5089938;28;20031;-69
2021/04/28 11:39:36;;;;;;;;;;;17.60;38.20;;;;;;5090625;28;20130;-69
2021/04/28 11:42:04;;;;;;;13.90;8.05;;;17.70;37.70;;;;;;5101918;28;19912;-69
2021/04/28 11:44:30;;;;;;;16.27;8.20;;;17.60;38.20;;;;;;5090028;28;20060;-70
2021/04/28 11:47:12;;;;;;;13.90;8.05;;;17.60;37.90;;;;;;5087573;28;20067;-69
2021/04/28 11:49:43;;;;;;;16.63;7.30;;;17.70;38.20;;;;;;5074739;28;20032;-69
2021/04/28 11:52:09;;;;;;;12.88;8.30;;;17.70;38.50;;;;;;5090205;28;20038;-70
2021/04/28 11:54:35;;;;;;;15.18;8.35;;;17.80;38.40;;;;;;5100630;28;20476;-69
2021/04/28 11:57:02;;;;;;;11.85;7.40;;;17.80;38.20;;;;;;5091151;28;20032;-68
2021/04/28 11:59:32;;;;;;;14.45;8.73;;;17.80;38.20;;;;;;5091035;28;20535;-68
2021/04/28 12:02:03;;;;;;;15.45;8.57;;;17.90;38.30;;;;;;5070354;28;20040;-69
2021/04/28 12:04:33;;;;;;;15.40;8.77;;;17.90;38.00;;;;;;5074259;28;20012;-68
2021/04/28 12:07:00;;;;;;;16.63;7.20;;;17.90;37.80;;;;;;5087997;28;20074;-68
2021/04/28 12:09:41;;;;;;;17.13;7.22;;;18.00;38.60;;;;;;5053502;28;20032;-69
2021/04/28 12:12:25;;;;;;;16.30;7.05;;;18.00;38.80;;;;;;5086786;28;20503;-69
2021/04/28 12:15:06;;;;;;;11.93;7.28;;;18.10;38.90;;;;;;5086918;28;20040;-69
2021/04/28 12:17:33;;;;;;;12.93;6.88;;;18.20;38.30;;;;;;5087717;28;20123;-69
2021/04/28 12:20:00;;;;;;;13.82;7.45;;;18.20;38.10;;;;;;5090182;28;20035;-69
2021/04/28 12:22:30;;;;;;;11.88;7.32;;;18.20;38.10;;;;;;5083257;28;20070;-69
2021/04/28 12:24:57;;;;;;;20.30;7.47;;;18.10;37.70;;;;;;5091084;28;20020;-69
2021/04/28 12:27:25;;;;;;;15.13;7.15;;;18.10;37.40;;;;;;5089157;28;20040;-69
2021/04/28 12:30:05;;;;;;;18.10;6.55;;;18.10;37.40;;;;;;5072696;28;20035;-69
2021/04/28 12:32:33;;;;;;;10.35;6.00;;;18.20;37.70;;;;;;5083157;28;20384;-68
2021/04/28 12:35:11;;;;;;;10.75;6.38;;;18.30;38.20;;;;;;5090849;28;20024;-69
2021/04/28 12:37:38;;;;;;;13.85;6.50;;;18.40;37.50;;;;;;5072316;28;20028;-69
2021/04/28 12:40:11;;;;;;;11.07;6.75;;;18.50;37.80;;;;;;5093359;28;20026;-69
2021/04/28 12:42:39;;;;;;;12.20;6.55;;;18.60;37.30;;;;;;5093034;28;20070;-70
2021/04/28 12:45:14;;;;;;;11.80;6.55;;;18.80;37.80;;;;;;5094713;28;20028;-68
2021/04/28 12:47:41;;;;;;;11.95;6.95;;;18.90;37.70;;;;;;5086314;28;20465;-69
2021/04/28 12:50:08;;;;;;;11.25;6.63;;;19.10;37.80;;;;;;5093258;28;20096;-68
2021/04/28 12:52:36;;;;;;;16.02;6.70;;;19.20;37.50;;;;;;5094463;28;20119;-68